Time;durP1;ratioP1;P1;durP2;ratioP2;P2;SDS_P1;SDS_P2;PMS_P1;PMS_P2;Temp;Humidity;BMP_temperature;BMP_pressure;BME280_temperature;BME280_humidity;BME280_pressure;Samples;Min_cycle;Max_cycle;Signal;HPM_P1;HPM_P2
2021/10/16 00:00:57;;;;;;;5.50;5.00;;;;;;;5.13;94.42;96002.53;6366798;22;20093;-59
2021/10/16 00:03:22;;;;;;;4.90;4.60;;;;;;;5.10;94.66;95997.50;6367266;22;20001;-59
2021/10/16 00:05:48;;;;;;;6.22;5.55;;;;;;;5.12;94.93;95998.25;6365894;22;20013;-59
2021/10/16 00:08:13;;;;;;;5.72;5.18;;;;;;;5.08;95.12;95991.56;6367231;22;20434;-59
2021/10/16 00:10:38;;;;;;;5.68;5.10;;;;;;;5.10;94.14;95997.50;6366499;22;20002;-59
2021/10/16 00:13:04;;;;;;;5.30;4.80;;;;;;;5.06;94.52;95985.59;6365615;22;20038;-59
2021/10/16 00:15:29;;;;;;;5.75;5.22;;;;;;;5.04;95.17;95995.31;6366720;22;20000;-59
2021/10/16 00:17:55;;;;;;;5.18;4.75;;;;;;;5.02;95.36;95991.97;6366663;22;20013;-59
2021/10/16 00:20:20;;;;;;;6.15;5.55;;;;;;;5.00;95.41;95988.63;6366221;22;20053;-60
2021/10/16 00:22:46;;;;;;;4.80;4.40;;;;;;;4.98;95.01;95990.50;6367389;22;20003;-59
2021/10/16 00:25:11;;;;;;;5.55;5.15;;;;;;;4.95;95.32;95993.28;6366032;22;20026;-59
2021/10/16 00:27:37;;;;;;;5.45;5.00;;;;;;;4.96;94.95;95997.56;6366741;22;20011;-59
2021/10/16 00:30:03;;;;;;;7.93;5.40;;;;;;;4.97;95.03;95992.25;6365875;22;20350;-59
2021/10/16 00:32:28;;;;;;;7.68;5.22;;;;;;;4.97;94.74;95992.25;6366441;22;20037;-58
2021/10/16 00:34:54;;;;;;;5.40;4.90;;;;;;;4.97;94.34;95988.78;6366350;22;20002;-59
2021/10/16 00:37:20;;;;;;;5.03;4.63;;;;;;;4.97;94.68;95986.19;6366885;22;20029;-59
2021/10/16 00:39:45;;;;;;;4.97;4.57;;;;;;;4.96;94.49;95989.72;6366036;22;20334;-59
2021/10/16 00:42:10;;;;;;;4.50;4.20;;;;;;;4.91;95.08;95995.28;6365805;22;20002;-60
2021/10/16 00:44:36;;;;;;;6.78;4.97;;;;;;;4.88;95.52;95992.88;6366312;22;20435;-58
2021/10/16 00:47:03;;;;;;;5.43;5.00;;;;;;;4.89;95.65;95989.31;6365434;22;20002;-61
2021/10/16 00:49:29;;;;;;;5.38;4.88;;;;;;;4.87;96.09;96005.06;6365668;22;20030;-59
2021/10/16 00:51:59;;;;;;;9.45;6.03;;;;;;;4.84;95.84;95993.97;6364066;22;20029;-58
2021/10/16 00:54:25;;;;;;;5.68;5.07;;;;;;;4.85;95.36;95991.28;6366190;22;20010;-58
2021/10/16 00:56:52;;;;;;;4.60;4.28;;;;;;;4.83;95.79;95987.94;6366792;22;20006;-59
2021/10/16 00:59:19;;;;;;;5.82;4.70;;;;;;;4.81;95.47;95989.81;6364685;22;20066;-58
2021/10/16 01:01:45;;;;;;;8.55;4.55;;;;;;;4.82;95.38;95982.81;6365574;22;20029;-58
2021/10/16 01:04:11;;;;;;;7.82;4.97;;;;;;;4.85;95.28;95980.00;6365385;22;20059;-58
2021/10/16 01:06:38;;;;;;;6.05;4.90;;;;;;;4.87;96.32;95984.19;6364571;22;20014;-58
2021/10/16 01:09:11;;;;;;;5.30;4.90;;;;;;;4.85;96.53;95980.00;6364254;22;20010;-58
2021/10/16 01:11:44;;;;;;;5.53;5.07;;;;;;;4.83;96.60;95980.09;6363434;22;20315;-58
2021/10/16 01:14:12;;;;;;;8.55;5.25;;;;;;;4.83;95.97;95980.09;6365927;22;20201;-58
2021/10/16 01:16:41;;;;;;;5.05;4.63;;;;;;;4.82;95.60;95978.44;6365207;22;20002;-58
2021/10/16 01:19:14;;;;;;;5.18;4.68;;;;;;;4.82;95.57;95981.03;6364149;22;20018;-58
2021/10/16 01:21:42;;;;;;;5.68;4.60;;;;;;;4.77;96.09;95974.44;6363779;22;20030;-58
2021/10/16 01:24:10;;;;;;;5.22;4.75;;;;;;;4.73;96.13;95979.88;6364763;22;20011;-59
2021/10/16 01:26:37;;;;;;;4.90;4.50;;;;;;;4.71;95.91;95979.13;6363591;22;20034;-59
2021/10/16 01:29:04;;;;;;;5.38;4.85;;;;;;;4.71;95.79;95980.88;6363818;22;20047;-58
2021/10/16 01:31:30;;;;;;;5.18;4.72;;;;;;;4.72;96.19;95972.13;6337401;22;20020;-58
2021/10/16 01:33:56;;;;;;;5.03;4.63;;;;;;;4.66;96.37;95975.13;6363749;22;20015;-59
2021/10/16 01:36:22;;;;;;;5.53;4.40;;;;;;;4.65;96.42;95968.25;6363483;22;20105;-61
2021/10/16 01:38:48;;;;;;;5.05;4.63;;;;;;;4.63;96.76;95970.13;6362992;22;20040;-60
2021/10/16 01:41:14;;;;;;;4.47;4.07;;;;;;;4.60;96.38;95976.34;6365832;22;20077;-60
2021/10/16 01:43:40;;;;;;;6.85;4.78;;;;;;;4.57;96.33;95969.59;6363106;22;20707;-59
2021/10/16 01:46:05;;;;;;;6.72;4.13;;;;;;;4.56;96.42;95972.28;6363858;22;20073;-60
2021/10/16 01:48:31;;;;;;;4.63;4.32;;;;;;;4.57;96.17;95972.19;6363876;22;20518;-59
2021/10/16 01:50:57;;;;;;;4.72;4.13;;;;;;;4.59;95.68;95967.72;6363380;22;20456;-59
2021/10/16 01:53:23;;;;;;;4.93;4.53;;;;;;;4.56;96.38;95961.84;6364253;22;20002;-58
2021/10/16 01:55:49;;;;;;;4.40;4.03;;;;;;;4.53;97.16;95972.47;6363378;22;20422;-58
2021/10/16 01:58:16;;;;;;;5.15;4.63;;;;;;;4.49;97.23;95973.63;6363611;22;20014;-58
2021/10/16 02:00:47;;;;;;;5.32;4.25;;;;;;;4.51;96.49;95976.97;6364912;22;20056;-58
2021/10/16 02:03:14;;;;;;;5.32;4.43;;;;;;;4.49;96.81;95979.66;6364429;22;20392;-59
2021/10/16 02:05:44;;;;;;;5.03;4.57;;;;;;;4.53;96.16;95982.91;6363232;22;20033;-58
2021/10/16 02:08:11;;;;;;;4.03;3.72;;;;;;;4.55;96.46;95983.66;6365660;22;20002;-58
2021/10/16 02:10:38;;;;;;;4.53;4.18;;;;;;;4.52;96.62;95989.06;6365131;22;20006;-58
2021/10/16 02:13:05;;;;;;;5.03;4.55;;;;;;;4.50;97.12;95983.94;6363215;22;20041;-60
2021/10/16 02:15:31;;;;;;;4.80;4.30;;;;;;;4.54;97.00;95984.59;6365383;22;20009;-58
2021/10/16 02:17:56;;;;;;;7.43;4.78;;;;;;;4.50;96.88;95991.75;6363879;22;20017;-58
2021/10/16 02:20:22;;;;;;;4.95;4.50;;;;;;;4.50;96.80;95991.75;6363461;22;20014;-62
2021/10/16 02:22:48;;;;;;;6.32;4.60;;;;;;;4.47;96.87;95989.34;6365332;22;20047;-58
2021/10/16 02:25:14;;;;;;;6.93;4.75;;;;;;;4.42;97.46;95988.81;6363673;22;19998;-58
2021/10/16 02:27:40;;;;;;;8.77;4.40;;;;;;;4.39;97.18;95994.22;6363405;22;20335;-58
2021/10/16 02:30:08;;;;;;;4.82;4.43;;;;;;;4.36;97.34;95997.00;6362913;22;20010;-59
2021/10/16 02:32:38;;;;;;;5.68;4.63;;;;;;;4.37;96.94;96002.13;6364930;22;20006;-58
2021/10/16 02:35:04;;;;;;;5.43;4.93;;;;;;;4.36;97.52;95999.63;6363396;22;20066;-58
2021/10/16 02:37:30;;;;;;;5.20;4.80;;;;;;;4.32;97.02;95996.34;6363212;22;20441;-59
2021/10/16 02:39:56;;;;;;;4.63;4.28;;;;;;;4.30;96.71;95995.63;6363572;22;20074;-59
2021/10/16 02:42:22;;;;;;;4.93;4.53;;;;;;;4.30;96.48;95996.44;6364941;22;20077;-58
2021/10/16 02:44:49;;;;;;;4.75;4.43;;;;;;;4.30;96.15;95999.06;6337429;22;20085;-58
2021/10/16 02:47:15;;;;;;;4.72;4.35;;;;;;;4.33;96.16;95997.22;6363886;22;20014;-58
2021/10/16 02:49:44;;;;;;;5.93;4.90;;;;;;;4.27;95.60;95996.63;6363931;22;19998;-58
2021/10/16 02:52:09;;;;;;;12.75;5.28;;;;;;;4.25;95.80;95989.88;6362674;22;20005;-58
2021/10/16 02:54:35;;;;;;;7.63;6.82;;;;;;;4.21;96.42;95993.59;6363618;22;20007;-59
2021/10/16 02:57:08;;;;;;;6.85;6.20;;;;;;;4.20;96.67;95997.97;6365284;22;20006;-59
2021/10/16 02:59:34;;;;;;;7.95;6.30;;;;;;;4.14;96.99;96000.94;6362887;22;20006;-60
2021/10/16 03:02:00;;;;;;;9.13;7.63;;;;;;;4.12;97.01;96001.03;6365471;22;20081;-59
2021/10/16 03:04:26;;;;;;;11.27;8.20;;;;;;;4.12;97.24;96006.25;6365014;22;20006;-59
2021/10/16 03:06:54;;;;;;;7.35;6.65;;;;;;;4.12;97.44;96005.44;6365979;22;20022;-60
2021/10/16 03:09:20;;;;;;;9.45;6.88;;;;;;;4.09;97.27;96009.03;6367138;22;20006;-60
2021/10/16 03:11:45;;;;;;;7.22;5.90;;;;;;;4.07;96.83;96008.31;6367097;22;20456;-59
2021/10/16 03:14:11;;;;;;;7.82;6.55;;;;;;;4.06;97.18;96005.78;6365672;22;20006;-60
2021/10/16 03:16:36;;;;;;;7.28;6.55;;;;;;;4.05;96.93;96002.34;6367255;22;20007;-60
2021/10/16 03:19:01;;;;;;;7.60;6.60;;;;;;;4.03;97.21;96003.38;6367260;22;20811;-60
2021/10/16 03:21:27;;;;;;;7.47;6.70;;;;;;;4.00;97.31;96004.41;6367359;22;20010;-60
2021/10/16 03:23:52;;;;;;;9.68;7.13;;;;;;;3.97;97.82;96013.25;6367116;22;20069;-60
2021/10/16 03:26:18;;;;;;;8.18;6.45;;;;;;;3.91;97.53;96016.22;6367639;22;20006;-61
2021/10/16 03:28:43;;;;;;;7.25;6.60;;;;;;;3.93;97.43;96011.75;6366664;22;20040;-60
2021/10/16 03:31:08;;;;;;;8.93;7.25;;;;;;;3.97;98.04;96015.00;6367430;22;20339;-60
2021/10/16 03:33:34;;;;;;;7.18;6.28;;;;;;;3.91;97.54;96021.44;6367473;22;20005;-60
2021/10/16 03:35:59;;;;;;;10.70;6.25;;;;;;;3.93;97.00;96011.75;6367260;22;20388;-59
2021/10/16 03:38:25;;;;;;;8.65;6.70;;;;;;;3.93;97.28;96013.50;6367259;22;20010;-60
2021/10/16 03:40:50;;;;;;;10.00;6.50;;;;;;;3.89;97.40;96017.25;6366738;22;19998;-60
2021/10/16 03:43:15;;;;;;;6.53;5.97;;;;;;;3.83;97.77;96018.44;6367151;22;20517;-60
2021/10/16 03:45:41;;;;;;;7.57;6.68;;;;;;;3.78;97.84;96017.88;6366715;22;20010;-60
2021/10/16 03:48:06;;;;;;;7.57;5.82;;;;;;;3.78;97.79;96020.50;6367248;22;20456;-60
2021/10/16 03:50:34;;;;;;;6.18;5.57;;;;;;;3.75;98.56;96023.28;6367111;22;20006;-60
2021/10/16 03:53:00;;;;;;;6.50;5.40;;;;;;;3.72;98.42;96025.13;6366802;22;20612;-60
2021/10/16 03:55:26;;;;;;;6.63;6.03;;;;;;;3.70;97.97;96024.41;6367151;22;19998;-60
2021/10/16 03:57:52;;;;;;;5.45;5.05;;;;;;;3.68;97.78;96028.88;6366801;22;20017;-60
2021/10/16 04:00:20;;;;;;;5.82;5.32;;;;;;;3.69;98.23;96022.72;6366983;22;20005;-60
2021/10/16 04:02:47;;;;;;;5.45;4.97;;;;;;;3.70;97.77;96015.72;6366885;22;20034;-60
2021/10/16 04:05:14;;;;;;;5.88;5.15;;;;;;;3.65;97.65;96020.38;6367071;22;20005;-60
2021/10/16 04:07:40;;;;;;;6.30;5.55;;;;;;;3.65;97.40;96021.25;6365871;22;20010;-60
2021/10/16 04:10:06;;;;;;;5.22;4.82;;;;;;;3.70;97.19;96032.22;6366450;22;20082;-60
2021/10/16 04:12:32;;;;;;;5.85;4.80;;;;;;;3.70;98.35;96027.00;6366419;22;20022;-60
2021/10/16 04:14:57;;;;;;;4.93;4.40;;;;;;;3.67;98.72;96028.94;6365988;22;20034;-60
2021/10/16 04:17:22;;;;;;;5.05;4.65;;;;;;;3.67;98.57;96035.00;6366886;22;20438;-60
2021/10/16 04:19:48;;;;;;;5.70;5.10;;;;;;;3.70;98.76;96033.97;6365957;22;20109;-60
2021/10/16 04:22:13;;;;;;;5.60;4.93;;;;;;;3.65;98.41;96038.59;6366595;22;20033;-60
2021/10/16 04:24:38;;;;;;;14.05;5.55;;;;;;;3.60;97.91;96038.88;6366851;22;19995;-60
2021/10/16 04:27:04;;;;;;;6.47;5.13;;;;;;;3.62;97.89;96039.63;6366533;22;20055;-60
2021/10/16 04:29:29;;;;;;;5.65;4.75;;;;;;;3.67;98.51;96034.16;6366512;22;20005;-60
2021/10/16 04:31:55;;;;;;;7.13;5.22;;;;;;;3.66;98.49;96042.88;6366151;22;20006;-60
2021/10/16 04:34:20;;;;;;;6.05;5.45;;;;;;;3.58;99.15;96040.72;6366642;22;20002;-60
2021/10/16 04:36:45;;;;;;;6.03;5.45;;;;;;;3.58;98.43;96043.34;6366373;22;20017;-60
2021/10/16 04:39:11;;;;;;;7.13;5.43;;;;;;;3.62;98.47;96031.81;6366297;22;20010;-60
2021/10/16 04:41:36;;;;;;;6.10;5.50;;;;;;;3.61;98.93;96037.13;6366731;22;20013;-60
2021/10/16 04:44:04;;;;;;;5.32;4.85;;;;;;;3.59;99.19;96039.81;6366007;22;20376;-60
2021/10/16 04:46:30;;;;;;;6.93;5.60;;;;;;;3.59;98.71;96042.41;6366275;22;20073;-60
2021/10/16 04:48:55;;;;;;;5.53;5.00;;;;;;;3.60;98.84;96038.88;6366366;22;20030;-60
2021/10/16 04:51:21;;;;;;;7.50;5.10;;;;;;;3.53;98.31;96038.38;6366395;22;20397;-60
2021/10/16 04:53:46;;;;;;;7.30;5.35;;;;;;;3.50;98.72;96053.38;6366024;22;20021;-60
2021/10/16 04:56:11;;;;;;;6.25;5.68;;;;;;;3.52;98.21;96047.13;6366211;22;20002;-60
2021/10/16 04:58:37;;;;;;;8.73;6.40;;;;;;;3.52;98.40;96039.31;6366290;22;20434;-60
2021/10/16 05:01:02;;;;;;;17.17;8.77;;;;;;;3.49;98.66;96044.72;6366763;22;20089;-60
2021/10/16 05:03:28;;;;;;;9.85;6.88;;;;;;;3.44;99.16;96036.34;6366165;22;20025;-60
2021/10/16 05:05:53;;;;;;;7.72;6.97;;;;;;;3.41;99.49;96039.94;6365923;22;20063;-60
2021/10/16 05:08:19;;;;;;;10.63;7.40;;;;;;;3.44;99.52;96037.19;6365992;22;19998;-60
2021/10/16 05:10:44;;;;;;;9.00;6.93;;;;;;;3.41;99.66;96034.75;6366516;22;20075;-60
2021/10/16 05:13:10;;;;;;;12.55;8.38;;;;;;;3.38;99.16;96045.34;6366571;22;20452;-60
2021/10/16 05:15:35;;;;;;;12.65;7.32;;;;;;;3.34;99.55;96043.03;6366015;22;19998;-60
2021/10/16 05:18:01;;;;;;;10.85;7.30;;;;;;;3.32;99.40;96037.06;6365868;22;20082;-60
2021/10/16 05:20:26;;;;;;;9.45;8.55;;;;;;;3.30;99.29;96037.97;6365590;22;20462;-60
2021/10/16 05:22:51;;;;;;;9.65;7.95;;;;;;;3.34;99.38;96037.81;6365919;22;20024;-60
2021/10/16 05:25:17;;;;;;;10.32;7.55;;;;;;;3.32;99.32;96037.06;6365804;22;20077;-60
2021/10/16 05:27:43;;;;;;;7.80;7.03;;;;;;;3.35;98.55;96044.69;6366343;22;20030;-60
2021/10/16 05:30:10;;;;;;;7.57;6.78;;;;;;;3.35;99.04;96048.13;6365719;22;20060;-60
2021/10/16 05:32:36;;;;;;;12.13;7.80;;;;;;;3.30;99.89;96050.97;6365777;22;20002;-60
2021/10/16 05:35:03;;;;;;;11.32;6.88;;;;;;;3.35;99.54;96045.50;6365355;22;20004;-61
2021/10/16 05:37:29;;;;;;;7.43;6.72;;;;;;;3.35;98.99;96044.69;6366124;22;20002;-60
2021/10/16 05:39:54;;;;;;;7.20;6.60;;;;;;;3.35;99.07;96055.09;6365689;22;20002;-60
2021/10/16 05:42:19;;;;;;;7.38;6.65;;;;;;;3.29;99.06;96056.28;6365442;22;20006;-60
2021/10/16 05:44:45;;;;;;;7.68;6.65;;;;;;;3.27;98.89;96058.16;6366093;22;20497;-60
2021/10/16 05:47:10;;;;;;;7.22;6.15;;;;;;;3.30;99.48;96055.38;6365896;22;20039;-61
2021/10/16 05:49:35;;;;;;;8.18;6.93;;;;;;;3.31;99.68;96062.25;6365927;22;20081;-60
2021/10/16 05:52:01;;;;;;;9.98;9.00;;;;;;;3.30;99.47;96066.59;6363299;22;20006;-60
2021/10/16 05:54:27;;;;;;;13.75;10.50;;;;;;;3.29;99.70;96061.50;6363345;22;20006;-60
2021/10/16 05:56:52;;;;;;;12.10;10.98;;;;;;;3.28;99.59;96065.03;6359976;22;20002;-60
2021/10/16 05:59:18;;;;;;;11.52;10.38;;;;;;;3.26;99.85;96066.88;6362384;22;20430;-60
2021/10/16 06:01:43;;;;;;;14.10;11.68;;;;;;;3.24;99.40;96064.34;6362030;22;20011;-60
2021/10/16 06:04:08;;;;;;;11.52;10.32;;;;;;;3.26;100.00;96067.69;6365210;22;20014;-61
2021/10/16 06:06:34;;;;;;;13.18;10.00;;;;;;;3.23;99.86;96067.88;6363499;22;20478;-60
2021/10/16 06:08:59;;;;;;;12.07;9.35;;;;;;;3.27;99.62;96076.34;6365837;22;20071;-60
2021/10/16 06:11:25;;;;;;;10.55;8.57;;;;;;;3.32;100.00;96071.72;6365149;22;20003;-60
2021/10/16 06:13:50;;;;;;;11.02;8.50;;;;;;;3.30;100.00;96069.19;6365699;22;20063;-61
2021/10/16 06:16:16;;;;;;;12.32;8.68;;;;;;;3.29;100.00;96069.31;6365362;22;20410;-60
2021/10/16 06:18:43;;;;;;;8.90;8.00;;;;;;;3.32;100.00;96066.50;6363226;22;20010;-60
2021/10/16 06:21:08;;;;;;;7.78;7.13;;;;;;;3.33;100.00;96067.38;6363042;22;20010;-60
2021/10/16 06:23:34;;;;;;;8.10;7.28;;;;;;;3.35;100.00;96062.91;6364566;22;20006;-60
2021/10/16 06:25:59;;;;;;;10.18;7.72;;;;;;;3.36;100.00;96075.81;6365706;22;20002;-60
2021/10/16 06:28:25;;;;;;;10.15;9.15;;;;;;;3.38;100.00;96073.16;6364443;22;20512;-59
2021/10/16 06:30:50;;;;;;;10.40;7.20;;;;;;;3.39;99.86;96078.25;6364676;22;20002;-61
2021/10/16 06:33:16;;;;;;;9.93;7.68;;;;;;;3.40;100.00;96076.50;6365663;22;20002;-60
2021/10/16 06:35:41;;;;;;;8.98;7.97;;;;;;;3.38;100.00;96080.94;6365147;22;20006;-61
2021/10/16 06:38:07;;;;;;;9.77;7.85;;;;;;;3.42;100.00;96085.06;6365049;22;20002;-60
2021/10/16 06:40:33;;;;;;;9.70;8.25;;;;;;;3.46;100.00;96083.94;6365297;22;20002;-61
2021/10/16 06:42:58;;;;;;;9.13;7.63;;;;;;;3.48;100.00;96097.72;6365356;22;20014;-61
2021/10/16 06:45:24;;;;;;;12.35;8.18;;;;;;;3.49;100.00;96093.34;6362127;22;20002;-60
2021/10/16 06:47:50;;;;;;;13.50;8.60;;;;;;;3.47;100.00;96092.59;6364498;22;20009;-60
2021/10/16 06:50:15;;;;;;;8.65;7.35;;;;;;;3.51;100.00;96100.13;6363926;22;19998;-60
2021/10/16 06:52:40;;;;;;;10.20;8.13;;;;;;;3.56;100.00;96105.06;6364559;22;19999;-60
2021/10/16 06:55:06;;;;;;;9.50;7.45;;;;;;;3.61;100.00;96097.00;6362628;22;20011;-60
2021/10/16 06:57:31;;;;;;;12.45;7.88;;;;;;;3.65;100.00;96103.72;6364072;22;20033;-59
2021/10/16 06:59:57;;;;;;;10.65;8.00;;;;;;;3.68;100.00;96104.38;6364834;22;19998;-60
2021/10/16 07:02:22;;;;;;;8.52;7.72;;;;;;;3.73;100.00;96102.34;6364466;22;20010;-60
2021/10/16 07:04:47;;;;;;;10.18;8.73;;;;;;;3.80;100.00;96105.44;6364057;22;20007;-59
2021/10/16 07:07:13;;;;;;;8.77;7.95;;;;;;;3.84;100.00;96106.06;6363777;22;20006;-59
2021/10/16 07:09:38;;;;;;;9.60;7.82;;;;;;;3.84;100.00;96108.66;6364960;22;20006;-59
2021/10/16 07:12:07;;;;;;;8.80;6.97;;;;;;;3.85;100.00;96105.13;6364556;22;20005;-59
2021/10/16 07:14:33;;;;;;;9.25;8.35;;;;;;;3.87;100.00;96113.72;6363884;22;20168;-59
2021/10/16 07:16:58;;;;;;;8.43;7.65;;;;;;;3.89;100.00;96111.00;6363962;22;20740;-59
2021/10/16 07:19:23;;;;;;;13.05;7.82;;;;;;;3.94;100.00;96112.44;6364312;22;20018;-59
2021/10/16 07:21:49;;;;;;;7.65;6.85;;;;;;;3.97;100.00;96112.25;6363943;22;20002;-61
2021/10/16 07:24:14;;;;;;;12.13;6.97;;;;;;;4.00;100.00;96106.03;6365343;22;20002;-61
2021/10/16 07:26:40;;;;;;;15.85;6.93;;;;;;;4.04;100.00;96104.91;6364456;22;20037;-62
2021/10/16 07:29:06;;;;;;;7.65;6.95;;;;;;;4.08;100.00;96114.22;6364826;22;20055;-60
2021/10/16 07:31:32;;;;;;;7.10;6.50;;;;;;;4.08;100.00;96105.53;6364470;22;20640;-61
2021/10/16 07:34:00;;;;;;;7.72;6.32;;;;;;;4.08;100.00;96110.75;6365383;22;19998;-61
2021/10/16 07:36:28;;;;;;;7.28;6.68;;;;;;;4.07;100.00;96109.94;6363162;22;20026;-61
2021/10/16 07:38:53;;;;;;;7.72;6.03;;;;;;;4.07;100.00;96107.31;6364238;22;20464;-61
2021/10/16 07:41:19;;;;;;;7.63;6.70;;;;;;;4.11;100.00;96105.38;6364581;22;19998;-61
2021/10/16 07:43:44;;;;;;;8.35;6.43;;;;;;;4.16;100.00;96111.16;6363669;22;20033;-61
2021/10/16 07:46:09;;;;;;;14.88;6.85;;;;;;;4.18;100.00;96111.91;6364266;22;20010;-61
2021/10/16 07:48:35;;;;;;;6.32;5.82;;;;;;;4.21;100.00;96116.91;6362298;22;20009;-62
2021/10/16 07:51:00;;;;;;;7.80;6.90;;;;;;;4.20;100.00;96114.38;6365501;22;20002;-62
2021/10/16 07:53:26;;;;;;;9.68;7.07;;;;;;;4.26;100.00;96117.47;6365571;22;20729;-61
2021/10/16 07:55:51;;;;;;;6.50;5.90;;;;;;;4.39;100.00;96119.34;6365751;22;20033;-61
2021/10/16 07:58:16;;;;;;;10.65;5.72;;;;;;;4.53;100.00;96116.75;6366402;22;20041;-60
2021/10/16 08:00:42;;;;;;;11.85;7.07;;;;;;;4.70;100.00;96123.53;6365890;22;20022;-61
2021/10/16 08:03:07;;;;;;;10.68;9.68;;;;;;;4.85;100.00;96118.25;6365686;22;20009;-61
2021/10/16 08:05:32;;;;;;;15.90;11.93;;;;;;;4.99;100.00;96110.41;6365612;22;20010;-61
2021/10/16 08:07:58;;;;;;;13.52;10.98;;;;;;;5.12;100.00;96118.31;6366018;22;20003;-60
2021/10/16 08:10:24;;;;;;;7.22;6.63;;;;;;;5.26;100.00;96113.97;6366357;22;20338;-61
2021/10/16 08:12:49;;;;;;;6.90;5.82;;;;;;;5.39;99.22;96112.25;6366024;22;20056;-61
2021/10/16 08:15:15;;;;;;;7.82;6.65;;;;;;;5.50;98.99;96108.94;6365818;22;19999;-61
2021/10/16 08:17:41;;;;;;;7.85;7.13;;;;;;;5.64;98.94;96102.81;6365338;22;20007;-61
2021/10/16 08:20:07;;;;;;;8.02;7.32;;;;;;;5.77;99.31;96112.44;6365213;22;20028;-61
2021/10/16 08:22:32;;;;;;;7.28;6.65;;;;;;;5.85;98.84;96103.16;6365597;22;20395;-60
2021/10/16 08:24:58;;;;;;;7.88;7.18;;;;;;;5.97;98.88;96108.53;6365467;22;20033;-60
2021/10/16 08:27:23;;;;;;;8.20;7.50;;;;;;;6.14;99.17;96102.16;6366063;22;20358;-61
2021/10/16 08:29:49;;;;;;;8.65;7.70;;;;;;;6.37;99.08;96107.59;6366065;22;20097;-60
2021/10/16 08:32:15;;;;;;;8.30;7.60;;;;;;;6.50;98.04;96108.41;6366296;22;20502;-61
2021/10/16 08:34:40;;;;;;;8.70;8.00;;;;;;;6.66;97.02;96100.34;6366223;22;20486;-60
2021/10/16 08:37:06;;;;;;;8.98;8.10;;;;;;;6.74;97.25;96107.63;6366831;22;20014;-60
2021/10/16 08:39:31;;;;;;;10.73;7.95;;;;;;;6.79;95.97;96105.56;6366380;22;20680;-60
2021/10/16 08:41:57;;;;;;;9.20;8.30;;;;;;;6.90;95.47;96101.34;6363979;22;20143;-60
2021/10/16 08:44:24;;;;;;;8.70;7.85;;;;;;;7.00;94.96;96104.97;6365959;22;20009;-60
2021/10/16 08:46:52;;;;;;;10.18;8.23;;;;;;;7.09;93.95;96106.09;6363258;22;20104;-60
2021/10/16 08:49:18;;;;;;;9.68;8.25;;;;;;;7.12;94.46;96104.09;6363847;22;20048;-60
2021/10/16 08:51:44;;;;;;;10.25;9.27;;;;;;;7.19;94.91;96104.47;6365431;22;20003;-60
2021/10/16 08:54:09;;;;;;;10.35;9.35;;;;;;;7.23;94.94;96102.50;6365865;22;20338;-60
2021/10/16 08:56:35;;;;;;;14.35;11.32;;;;;;;7.38;95.97;96109.22;6365956;22;20055;-60
2021/10/16 08:59:00;;;;;;;11.27;10.18;;;;;;;7.60;95.06;96102.41;6366079;22;20094;-61
2021/10/16 09:01:26;;;;;;;13.60;11.57;;;;;;;7.79;94.76;96106.28;6365115;22;20097;-61
2021/10/16 09:03:52;;;;;;;12.43;11.23;;;;;;;7.89;94.16;96100.22;6366014;22;20006;-60
2021/10/16 09:06:25;;;;;;;12.65;11.48;;;;;;;7.97;93.20;96101.47;6366206;22;20349;-62
2021/10/16 09:09:09;;;;;;;13.65;11.35;;;;;;;8.05;93.44;96100.84;6366266;22;20060;-62
2021/10/16 09:11:35;;;;;;;9.98;8.18;;;;;;;8.11;94.54;96098.59;6365123;22;20009;-63
2021/10/16 09:14:16;;;;;;;10.30;9.35;;;;;;;8.13;95.26;96095.88;6365780;22;20010;-63
2021/10/16 09:16:47;;;;;;;14.88;13.38;;;;;;;8.15;93.32;96091.34;6365736;22;20010;-63
2021/10/16 09:19:21;;;;;;;13.20;11.15;;;;;;;8.22;92.06;96095.16;6365790;22;20018;-63
2021/10/16 09:22:08;;;;;;;13.80;12.20;;;;;;;8.25;90.46;96094.94;6366072;22;20002;-62
2021/10/16 09:24:35;;;;;;;15.75;11.15;;;;;;;8.34;91.49;96095.19;6365924;22;20071;-62
2021/10/16 09:27:06;;;;;;;16.42;14.82;;;;;;;8.40;92.37;96085.06;6364134;22;20009;-62
2021/10/16 09:29:34;;;;;;;14.05;12.60;;;;;;;8.49;91.35;96094.00;6359998;22;20069;-62
2021/10/16 09:32:02;;;;;;;14.95;13.05;;;;;;;8.69;91.16;96084.59;6364624;22;20592;-62
2021/10/16 09:34:33;;;;;;;14.52;13.00;;;;;;;8.85;90.40;96089.47;6366005;22;20495;-63
2021/10/16 09:37:19;;;;;;;14.70;13.30;;;;;;;8.92;90.06;96081.94;6363161;22;20055;-62
2021/10/16 09:39:50;;;;;;;16.33;13.02;;;;;;;8.99;89.41;96077.06;6364875;22;20438;-63
2021/10/16 09:42:17;;;;;;;14.40;12.88;;;;;;;9.11;89.11;96069.97;6363072;22;20700;-60
2021/10/16 09:44:44;;;;;;;15.02;12.63;;;;;;;9.14;87.71;96070.56;6362962;22;19999;-62
2021/10/16 09:47:11;;;;;;;19.55;11.98;;;;;;;9.22;87.36;96074.38;6363642;22;20009;-62
2021/10/16 09:50:07;;;;;;;13.02;11.63;;;;;;;9.35;86.13;96067.13;6361662;22;20139;-61
2021/10/16 09:52:40;;;;;;;15.45;11.75;;;;;;;9.51;85.46;96076.41;6345095;22;20042;-63
2021/10/16 09:55:09;;;;;;;13.27;12.07;;;;;;;9.52;85.63;96075.44;6365151;22;20434;-63
2021/10/16 09:57:35;;;;;;;14.48;12.43;;;;;;;9.62;86.48;96078.16;6364769;22;20002;-63
2021/10/16 10:00:02;;;;;;;13.88;12.40;;;;;;;9.73;86.01;96078.94;6364442;22;20073;-63
2021/10/16 10:02:29;;;;;;;14.98;13.02;;;;;;;9.83;85.64;96071.13;6364176;22;20021;-63
2021/10/16 10:04:55;;;;;;;15.80;12.05;;;;;;;9.84;83.88;96078.03;6362807;22;20091;-63
2021/10/16 10:07:21;;;;;;;12.15;10.48;;;;;;;9.87;84.65;96077.78;6364260;22;20081;-63
2021/10/16 10:09:47;;;;;;;13.05;11.75;;;;;;;9.95;83.28;96084.22;6364526;22;20026;-63
2021/10/16 10:12:14;;;;;;;13.00;11.55;;;;;;;10.04;81.97;96073.72;6364642;22;19999;-63
2021/10/16 10:14:42;;;;;;;13.82;12.43;;;;;;;10.13;80.51;96073.94;6363448;22;20362;-63
2021/10/16 10:17:09;;;;;;;11.18;10.07;;;;;;;10.18;81.12;96069.09;6365227;22;20017;-62
2021/10/16 10:19:40;;;;;;;11.52;10.40;;;;;;;10.29;79.23;96073.47;6363147;22;20142;-64
2021/10/16 10:22:16;;;;;;;11.45;10.25;;;;;;;10.41;80.32;96074.25;6365222;22;20003;-63
2021/10/16 10:24:44;;;;;;;11.43;10.32;;;;;;;10.52;77.62;96076.81;6364439;22;20013;-65
2021/10/16 10:27:11;;;;;;;12.18;10.15;;;;;;;10.56;77.39;96072.94;6364575;22;20002;-64
2021/10/16 10:29:39;;;;;;;10.27;9.23;;;;;;;10.64;76.91;96076.69;6364404;22;20014;-64
2021/10/16 10:32:26;;;;;;;10.20;9.18;;;;;;;10.79;74.48;96075.38;6364272;22;20003;-64
2021/10/16 10:34:58;;;;;;;13.65;8.45;;;;;;;10.87;73.47;96064.16;6365368;22;20002;-67
2021/10/16 10:37:30;;;;;;;13.02;8.70;;;;;;;10.93;74.36;96070.69;6363854;22;20006;-69
2021/10/16 10:39:58;;;;;;;8.45;7.65;;;;;;;11.17;72.84;96071.16;6363790;22;20006;-66
2021/10/16 10:42:23;;;;;;;10.23;7.55;;;;;;;11.38;70.71;96064.91;6360649;22;21510;-66
2021/10/16 10:44:51;;;;;;;7.80;6.65;;;;;;;11.40;72.35;96065.63;6364805;22;20006;-64
2021/10/16 10:47:19;;;;;;;7.82;7.10;;;;;;;11.53;70.39;96064.50;6364250;22;20204;-64
2021/10/16 10:49:45;;;;;;;9.10;7.72;;;;;;;11.63;72.46;96065.38;6363682;22;20003;-63
2021/10/16 10:52:10;;;;;;;10.15;6.78;;;;;;;11.88;72.03;96068.41;6364141;22;20008;-64
2021/10/16 10:54:37;;;;;;;8.95;6.93;;;;;;;12.17;69.46;96067.53;6364983;22;20064;-62
2021/10/16 10:57:03;;;;;;;7.35;6.65;;;;;;;12.47;68.60;96068.28;6364949;22;20006;-63
2021/10/16 10:59:28;;;;;;;7.72;6.93;;;;;;;12.86;65.98;96057.53;6364304;22;20065;-66
2021/10/16 11:02:03;;;;;;;6.53;5.93;;;;;;;13.27;65.77;96054.53;6362700;22;19999;-64
2021/10/16 11:04:32;;;;;;;7.18;6.43;;;;;;;13.69;64.63;96052.28;6365432;22;20438;-62
2021/10/16 11:07:01;;;;;;;6.78;6.15;;;;;;;13.85;63.39;96051.59;6362973;22;20006;-64
2021/10/16 11:09:26;;;;;;;6.13;5.53;;;;;;;14.11;62.34;96043.66;6362292;22;20012;-66
2021/10/16 11:11:51;;;;;;;7.53;6.30;;;;;;;14.22;61.42;96042.56;6362515;22;20074;-65
2021/10/16 11:14:18;;;;;;;5.82;5.28;;;;;;;14.45;60.61;96042.03;6362651;22;20002;-65
2021/10/16 11:17:04;;;;;;;5.78;5.25;;;;;;;14.56;59.34;96033.81;6361430;22;20006;-65
2021/10/16 11:19:30;;;;;;;6.63;5.03;;;;;;;14.49;59.29;96035.44;6363682;22;20019;-66
2021/10/16 11:21:58;;;;;;;5.55;5.05;;;;;;;14.36;59.42;96032.38;6363645;22;20007;-63
2021/10/16 11:24:27;;;;;;;6.15;5.43;;;;;;;13.91;60.34;96027.16;6365030;22;20014;-63
2021/10/16 11:26:57;;;;;;;5.40;4.97;;;;;;;13.80;61.41;96022.94;6366063;22;20008;-64
2021/10/16 11:29:37;;;;;;;10.98;4.70;;;;;;;13.46;61.60;96021.00;6366721;22;20042;-64
2021/10/16 11:32:20;;;;;;;4.72;4.32;;;;;;;13.42;62.22;96019.59;6367545;22;19999;-67
2021/10/16 11:35:03;;;;;;;8.35;5.10;;;;;;;13.35;63.06;96018.56;6366637;22;20438;-63